createdAt,value
2022-08-30T00:01:29.585Z,16.50
2022-08-30T00:03:58.456Z,16.40
2022-08-30T00:06:28.473Z,16.40
2022-08-30T00:08:57.233Z,16.40
2022-08-30T00:11:28.979Z,16.40
2022-08-30T00:13:58.140Z,16.30
2022-08-30T00:16:26.840Z,16.30
2022-08-30T00:18:56.235Z,16.30
2022-08-30T00:21:23.482Z,16.30
2022-08-30T00:23:50.730Z,16.30
2022-08-30T00:26:17.891Z,16.30
2022-08-30T00:28:45.101Z,16.30
2022-08-30T00:31:15.167Z,16.20
2022-08-30T00:33:42.961Z,16.20
2022-08-30T00:36:10.192Z,16.10
2022-08-30T00:38:37.340Z,16.10
2022-08-30T00:41:04.495Z,16.10
2022-08-30T00:43:36.751Z,16.10
2022-08-30T00:46:08.546Z,16.10
2022-08-30T00:48:41.174Z,16.10
2022-08-30T00:51:11.595Z,16.00
2022-08-30T00:53:44.628Z,15.90
2022-08-30T00:56:12.614Z,15.80
2022-08-30T00:58:45.677Z,15.60
2022-08-30T01:01:13.685Z,15.50
2022-08-30T01:03:42.055Z,15.50
2022-08-30T01:06:10.121Z,15.40
2022-08-30T01:08:37.962Z,15.40
2022-08-30T01:11:05.525Z,15.30
2022-08-30T01:13:37.643Z,15.30
2022-08-30T01:16:06.939Z,15.20
2022-08-30T01:18:37.215Z,15.20
2022-08-30T01:21:32.146Z,15.10
2022-08-30T01:24:01.252Z,15.10
2022-08-30T01:26:30.819Z,15.10
2022-08-30T01:29:04.394Z,15.10
2022-08-30T01:31:32.807Z,15.00
2022-08-30T01:34:02.032Z,14.90
2022-08-30T01:36:29.200Z,14.90
2022-08-30T01:38:58.122Z,14.90
2022-08-30T01:41:35.030Z,14.80
2022-08-30T01:44:09.966Z,14.80
2022-08-30T01:46:46.351Z,14.80
2022-08-30T01:49:24.890Z,14.80
2022-08-30T01:52:00.976Z,14.70
2022-08-30T01:54:38.285Z,14.70
2022-08-30T01:57:13.566Z,14.70
2022-08-30T01:59:47.512Z,14.70
2022-08-30T02:02:23.067Z,14.60
2022-08-30T02:04:50.362Z,14.60
2022-08-30T02:07:17.603Z,14.60
2022-08-30T02:09:46.267Z,14.60
2022-08-30T02:12:14.367Z,14.60
2022-08-30T02:14:41.587Z,14.50
2022-08-30T02:17:11.995Z,14.50
2022-08-30T02:19:39.523Z,14.50
2022-08-30T02:22:07.696Z,14.50
2022-08-30T02:24:35.871Z,14.40
2022-08-30T02:27:03.456Z,14.30
2022-08-30T02:29:31.147Z,14.30
2022-08-30T02:31:58.444Z,14.20
2022-08-30T02:34:25.753Z,14.30
2022-08-30T02:36:52.971Z,14.20
2022-08-30T02:39:20.097Z,14.30
2022-08-30T02:41:47.198Z,14.30
2022-08-30T02:44:15.616Z,14.30
2022-08-30T02:46:42.958Z,14.30
2022-08-30T02:49:32.551Z,14.30
2022-08-30T02:51:57.896Z,14.30
2022-08-30T02:54:24.990Z,14.30
2022-08-30T02:56:52.179Z,14.20
2022-08-30T02:59:19.695Z,14.20
2022-08-30T03:01:46.958Z,14.20
2022-08-30T03:04:14.800Z,14.20
2022-08-30T03:06:41.967Z,14.20
2022-08-30T03:09:09.059Z,14.10
2022-08-30T03:11:36.287Z,14.10
2022-08-30T03:14:04.337Z,14.00
2022-08-30T03:16:31.551Z,14.00
2022-08-30T03:18:58.673Z,13.90
2022-08-30T03:21:25.828Z,13.90
2022-08-30T03:23:52.883Z,13.80
2022-08-30T03:26:20.101Z,13.80
2022-08-30T03:28:47.259Z,13.80
2022-08-30T03:31:14.400Z,13.70
2022-08-30T03:33:42.040Z,13.70
2022-08-30T03:36:10.178Z,13.70
2022-08-30T03:38:38.375Z,13.60
2022-08-30T03:41:06.080Z,13.60
2022-08-30T03:43:34.813Z,13.60
2022-08-30T03:46:03.536Z,13.60
2022-08-30T03:48:31.331Z,13.50
2022-08-30T03:50:58.446Z,13.50
2022-08-30T03:53:27.103Z,13.50
2022-08-30T03:55:54.948Z,13.50
2022-08-30T03:58:22.831Z,13.40
2022-08-30T04:00:50.149Z,13.40
2022-08-30T04:03:18.868Z,13.40
2022-08-30T04:05:46.056Z,13.40
2022-08-30T04:08:13.123Z,13.40
2022-08-30T04:10:40.254Z,13.30
2022-08-30T04:13:07.558Z,13.30
2022-08-30T04:15:34.672Z,13.30
2022-08-30T04:18:01.774Z,13.30
2022-08-30T04:20:28.856Z,13.30
2022-08-30T04:22:55.926Z,13.30
2022-08-30T04:25:23.271Z,13.20
2022-08-30T04:27:50.471Z,13.20
2022-08-30T04:30:18.805Z,13.20
2022-08-30T04:32:46.541Z,13.30
2022-08-30T04:35:14.044Z,13.20
2022-08-30T04:37:41.435Z,13.20
2022-08-30T04:40:11.114Z,13.20
2022-08-30T04:42:38.682Z,13.30
2022-08-30T04:45:11.530Z,13.30
2022-08-30T04:47:39.433Z,13.30
2022-08-30T04:50:13.152Z,13.20
2022-08-30T04:52:40.552Z,13.20
2022-08-30T04:55:08.984Z,13.20
2022-08-30T04:57:36.404Z,13.10
2022-08-30T05:00:11.635Z,13.20
2022-08-30T05:02:40.751Z,13.10
2022-08-30T05:05:28.188Z,13.10
2022-08-30T05:07:55.702Z,13.20
2022-08-30T05:10:23.398Z,13.10
2022-08-30T05:12:51.016Z,13.10
2022-08-30T05:15:18.323Z,13.10
2022-08-30T05:17:45.815Z,13.20
2022-08-30T05:20:15.299Z,13.20
2022-08-30T05:22:50.365Z,13.30
2022-08-30T05:25:24.871Z,13.30
2022-08-30T05:27:53.432Z,13.40
2022-08-30T05:30:23.050Z,13.40
2022-08-30T05:32:50.303Z,13.50
2022-08-30T05:35:22.218Z,13.50
2022-08-30T05:37:52.360Z,13.60
2022-08-30T05:40:19.863Z,13.70
2022-08-30T05:42:47.611Z,13.80
2022-08-30T05:45:15.786Z,13.80
2022-08-30T05:47:42.894Z,13.90
2022-08-30T05:50:10.759Z,14.00
2022-08-30T05:52:40.412Z,14.00
2022-08-30T05:55:08.884Z,14.00
2022-08-30T05:57:39.103Z,14.20
2022-08-30T06:00:14.835Z,14.20
2022-08-30T06:02:42.819Z,14.30
2022-08-30T06:05:14.193Z,14.40
2022-08-30T06:07:42.806Z,14.50
2022-08-30T06:10:12.510Z,14.60
2022-08-30T06:12:39.839Z,14.70
2022-08-30T06:15:08.304Z,14.80
2022-08-30T06:17:35.630Z,14.80
2022-08-30T06:20:03.081Z,15.00
2022-08-30T06:22:30.168Z,15.10
2022-08-30T06:24:58.235Z,15.10
2022-08-30T06:27:25.553Z,15.20
2022-08-30T06:29:54.972Z,15.30
2022-08-30T06:32:22.835Z,15.50
2022-08-30T06:34:50.202Z,15.70
2022-08-30T06:37:21.968Z,15.90
2022-08-30T06:39:58.370Z,16.10
2022-08-30T06:42:32.016Z,16.40
2022-08-30T06:45:01.555Z,16.70
2022-08-30T06:47:29.932Z,17.00
2022-08-30T06:49:58.409Z,17.20
2022-08-30T06:52:26.156Z,17.40
2022-08-30T06:54:59.061Z,17.50
2022-08-30T06:57:27.129Z,17.70
2022-08-30T06:59:58.485Z,17.90
2022-08-30T07:02:26.074Z,18.10
2022-08-30T07:04:53.324Z,18.20
2022-08-30T07:07:20.850Z,18.40
2022-08-30T07:09:48.170Z,18.60
2022-08-30T07:12:15.875Z,18.70
2022-08-30T07:14:43.229Z,19.00
2022-08-30T07:17:33.907Z,19.10
2022-08-30T07:20:02.878Z,19.30
2022-08-30T07:22:30.295Z,19.50
2022-08-30T07:24:57.346Z,19.60
2022-08-30T07:27:24.499Z,19.80
2022-08-30T07:29:51.615Z,19.90
2022-08-30T07:32:18.719Z,20.00
2022-08-30T07:34:45.875Z,20.10
2022-08-30T07:37:17.964Z,20.10
2022-08-30T07:39:47.958Z,20.20
2022-08-30T07:42:16.343Z,20.30
2022-08-30T07:44:43.898Z,20.40
2022-08-30T07:47:12.108Z,20.50
2022-08-30T07:49:39.262Z,20.60
2022-08-30T07:52:06.360Z,20.70
2022-08-30T07:54:33.738Z,20.80
2022-08-30T07:57:00.818Z,21.00
2022-08-30T07:59:28.406Z,21.10
2022-08-30T08:01:56.921Z,21.30
2022-08-30T08:04:24.403Z,21.40
2022-08-30T08:06:51.519Z,21.40
2022-08-30T08:09:19.806Z,21.60
2022-08-30T08:11:46.911Z,21.70
2022-08-30T08:16:46.937Z,21.90
2022-08-30T08:19:14.076Z,22.10
2022-08-30T08:21:41.974Z,22.20
2022-08-30T08:24:09.265Z,22.40
2022-08-30T08:26:40.218Z,22.40
2022-08-30T08:29:10.178Z,22.50
2022-08-30T08:31:38.176Z,22.60
2022-08-30T08:34:06.498Z,22.70
2022-08-30T08:36:35.563Z,22.80
2022-08-30T08:39:05.414Z,22.90
2022-08-30T08:42:04.155Z,22.90
2022-08-30T08:44:55.699Z,22.90
2022-08-30T08:47:57.684Z,23.00
2022-08-30T08:50:28.895Z,23.10
2022-08-30T08:53:46.003Z,23.10
2022-08-30T08:56:17.394Z,23.30
2022-08-30T08:58:48.844Z,23.40
2022-08-30T09:01:19.576Z,23.70
2022-08-30T09:03:48.585Z,23.80
2022-08-30T09:06:53.531Z,23.80
2022-08-30T09:09:41.542Z,23.90
2022-08-30T09:12:11.551Z,24.10
2022-08-30T09:14:49.935Z,24.20
2022-08-30T09:17:22.897Z,24.30
2022-08-30T09:19:53.097Z,24.50
2022-08-30T09:22:42.584Z,24.70
2022-08-30T09:25:13.686Z,24.80
2022-08-30T09:27:50.128Z,24.90
2022-08-30T09:30:30.055Z,25.00
2022-08-30T09:33:04.129Z,25.10
2022-08-30T09:35:40.715Z,25.20
2022-08-30T09:38:21.320Z,25.30
2022-08-30T09:40:51.230Z,25.40
2022-08-30T09:43:18.222Z,25.60
2022-08-30T09:46:09.173Z,25.60
2022-08-30T09:48:45.108Z,25.70
2022-08-30T09:51:12.679Z,25.80
2022-08-30T09:54:19.220Z,25.90
2022-08-30T09:57:33.879Z,26.00
2022-08-30T10:00:21.493Z,26.00
2022-08-30T10:03:40.261Z,26.00
2022-08-30T10:06:50.244Z,26.10
2022-08-30T10:09:25.189Z,26.10
2022-08-30T10:12:04.245Z,26.10
2022-08-30T10:14:57.802Z,26.10
2022-08-30T10:17:52.370Z,26.10
2022-08-30T10:20:19.422Z,26.20
2022-08-30T10:23:01.536Z,26.40
2022-08-30T10:25:38.701Z,26.60
2022-08-30T10:28:21.600Z,26.80
2022-08-30T10:30:59.328Z,27.00
2022-08-30T10:33:38.498Z,27.20
2022-08-30T10:36:12.310Z,27.30
2022-08-30T10:41:39.837Z,27.30
2022-08-30T10:44:30.006Z,27.10
2022-08-30T10:47:23.317Z,27.10
2022-08-30T10:50:03.742Z,27.30
2022-08-30T10:52:42.499Z,27.60
2022-08-30T10:55:38.100Z,27.80
2022-08-30T10:58:07.723Z,28.10
2022-08-30T11:01:06.914Z,28.30
2022-08-30T11:04:16.530Z,28.40
2022-08-30T11:10:24.307Z,28.10
2022-08-30T11:13:11.145Z,28.00
2022-08-30T11:16:11.572Z,28.40
2022-08-30T11:18:51.113Z,28.90
2022-08-30T11:21:38.814Z,29.10
2022-08-30T11:24:12.982Z,29.10
2022-08-30T11:26:46.345Z,29.00
2022-08-30T11:29:44.507Z,29.20
2022-08-30T11:32:17.328Z,29.80
2022-08-30T11:34:47.571Z,30.40
2022-08-30T11:37:40.329Z,30.60
2022-08-30T11:40:24.717Z,30.80
2022-08-30T11:42:56.511Z,30.80
2022-08-30T11:45:44.693Z,30.80
2022-08-30T11:48:53.685Z,31.00
2022-08-30T11:51:31.072Z,31.80
2022-08-30T11:54:34.686Z,32.30
2022-08-30T11:57:41.878Z,33.00
2022-08-30T12:00:12.875Z,33.20
2022-08-30T12:02:43.926Z,32.70
2022-08-30T12:05:43.008Z,32.50
2022-08-30T12:08:28.480Z,32.20
2022-08-30T12:11:09.255Z,32.40
2022-08-30T12:13:37.745Z,32.60
2022-08-30T12:16:15.072Z,33.30
2022-08-30T12:18:51.398Z,33.90
2022-08-30T12:21:21.525Z,34.30
2022-08-30T12:24:22.504Z,33.60
2022-08-30T12:26:52.359Z,32.80
2022-08-30T12:29:37.895Z,32.60
2022-08-30T12:32:22.436Z,32.00
2022-08-30T12:35:03.284Z,31.80
2022-08-30T12:37:34.072Z,32.00
2022-08-30T12:40:14.028Z,31.90
2022-08-30T12:42:56.871Z,32.10
2022-08-30T12:45:43.058Z,32.20
2022-08-30T12:48:19.871Z,31.40
2022-08-30T12:50:55.756Z,32.30
2022-08-30T12:53:42.206Z,32.30
2022-08-30T12:56:19.020Z,32.10
2022-08-30T12:58:54.292Z,31.80
2022-08-30T13:01:32.563Z,31.40
2022-08-30T13:04:22.771Z,31.30
2022-08-30T13:07:01.835Z,31.00
2022-08-30T13:09:42.702Z,30.40
2022-08-30T13:12:30.897Z,30.40
2022-08-30T13:15:16.756Z,30.40
2022-08-30T13:17:46.211Z,30.50
2022-08-30T13:20:16.296Z,30.70
2022-08-30T13:23:09.437Z,31.30
2022-08-30T13:25:41.486Z,31.90
2022-08-30T13:28:08.939Z,32.00
2022-08-30T13:30:37.662Z,31.80
2022-08-30T13:33:05.874Z,31.40
2022-08-30T13:35:33.683Z,31.20
2022-08-30T13:38:02.723Z,31.30
2022-08-30T13:40:30.531Z,31.30
2022-08-30T13:42:58.741Z,31.40
2022-08-30T13:45:41.965Z,31.20
2022-08-30T13:48:11.437Z,31.70
2022-08-30T13:50:39.044Z,32.20
2022-08-30T13:53:07.058Z,32.60
2022-08-30T13:55:34.201Z,32.60
2022-08-30T13:58:02.013Z,32.20
2022-08-30T14:00:33.501Z,31.80
2022-08-30T14:03:03.811Z,31.40
2022-08-30T14:06:00.521Z,30.80
2022-08-30T14:08:45.240Z,30.40
2022-08-30T14:11:18.568Z,30.30
2022-08-30T14:16:38.057Z,30.40
2022-08-30T14:19:07.340Z,30.60
2022-08-30T14:21:35.588Z,31.00
2022-08-30T14:24:05.477Z,31.40
2022-08-30T14:26:49.182Z,31.60
2022-08-30T14:29:21.626Z,31.40
2022-08-30T14:31:49.587Z,31.50
2022-08-30T14:34:19.957Z,31.40
2022-08-30T14:36:47.111Z,31.70
2022-08-30T14:39:20.145Z,32.00
2022-08-30T14:41:56.461Z,32.30
2022-08-30T14:44:25.376Z,32.60
2022-08-30T14:46:53.058Z,32.80
2022-08-30T14:49:21.922Z,32.90
2022-08-30T14:51:51.641Z,32.70
2022-08-30T14:54:25.406Z,32.70
2022-08-30T14:56:53.963Z,32.60
2022-08-30T14:59:22.208Z,32.30
2022-08-30T15:01:49.288Z,32.20
2022-08-30T15:04:17.930Z,32.20
2022-08-30T15:06:49.776Z,32.10
2022-08-30T15:09:23.584Z,32.10
2022-08-30T15:11:58.825Z,31.80
2022-08-30T15:14:26.300Z,31.70
2022-08-30T15:16:56.406Z,31.80
2022-08-30T15:19:24.168Z,31.80
2022-08-30T15:21:52.052Z,31.60
2022-08-30T15:24:25.021Z,31.60
2022-08-30T15:26:58.350Z,31.60
2022-08-30T15:29:27.810Z,31.60
2022-08-30T15:31:58.997Z,31.60
2022-08-30T15:34:28.283Z,31.30
2022-08-30T15:36:56.339Z,30.90
2022-08-30T15:39:24.421Z,30.70
2022-08-30T15:41:54.709Z,30.60
2022-08-30T15:44:24.535Z,30.60
2022-08-30T15:46:51.666Z,30.40
2022-08-30T15:49:23.708Z,30.50
2022-08-30T15:51:53.816Z,30.40
2022-08-30T15:54:24.065Z,30.20
2022-08-30T15:56:59.067Z,30.20
2022-08-30T15:59:29.161Z,30.10
2022-08-30T16:01:57.251Z,30.10
2022-08-30T16:04:24.900Z,30.10
2022-08-30T16:06:53.088Z,30.10
2022-08-30T16:09:20.255Z,29.90
2022-08-30T16:11:48.455Z,29.60
2022-08-30T16:14:15.655Z,29.30
2022-08-30T16:16:42.929Z,29.00
2022-08-30T16:19:10.322Z,29.00
2022-08-30T16:21:38.471Z,29.00
2022-08-30T16:24:10.647Z,29.00
2022-08-30T16:26:42.379Z,29.10
2022-08-30T16:29:10.801Z,29.00
2022-08-30T16:31:39.001Z,29.00
2022-08-30T16:34:06.762Z,29.00
2022-08-30T16:36:36.030Z,29.00
2022-08-30T16:39:08.438Z,29.00
2022-08-30T16:41:36.853Z,28.90
2022-08-30T16:44:05.564Z,28.80
2022-08-30T16:46:34.063Z,28.80
2022-08-30T16:49:02.411Z,28.80
2022-08-30T16:51:32.451Z,28.70
2022-08-30T16:54:04.226Z,28.70
2022-08-30T16:56:33.756Z,28.60
2022-08-30T16:59:03.132Z,28.50
2022-08-30T17:01:37.640Z,28.50
2022-08-30T17:04:08.126Z,28.40
2022-08-30T17:06:35.983Z,28.30
2022-08-30T17:09:05.583Z,28.10
2022-08-30T17:11:34.320Z,27.90
2022-08-30T17:14:02.267Z,27.50
2022-08-30T17:16:30.142Z,27.20
2022-08-30T17:19:00.390Z,26.90
2022-08-30T17:21:31.588Z,26.60
2022-08-30T17:24:01.693Z,26.10
2022-08-30T17:26:35.971Z,25.80
2022-08-30T17:29:06.171Z,25.50
2022-08-30T17:31:37.539Z,25.30
2022-08-30T17:34:05.946Z,25.00
2022-08-30T17:36:36.934Z,24.70
2022-08-30T17:39:10.407Z,24.40
2022-08-30T17:41:43.426Z,24.10
2022-08-30T17:44:15.618Z,23.80
2022-08-30T17:46:42.793Z,23.50
2022-08-30T17:49:10.610Z,23.20
2022-08-30T17:51:41.995Z,23.00
2022-08-30T17:54:12.141Z,22.90
2022-08-30T17:56:41.173Z,22.70
2022-08-30T17:59:13.418Z,22.60
2022-08-30T18:01:44.643Z,22.60
2022-08-30T18:04:14.479Z,22.40
2022-08-30T18:06:47.367Z,22.40
2022-08-30T18:09:14.916Z,22.30
2022-08-30T18:11:42.066Z,22.30
2022-08-30T18:14:11.439Z,22.20
2022-08-30T18:16:49.754Z,22.10
2022-08-30T18:19:24.653Z,22.00
2022-08-30T18:21:53.334Z,21.80
2022-08-30T18:24:21.676Z,21.60
2022-08-30T18:26:48.985Z,21.50
2022-08-30T18:29:26.367Z,21.30
2022-08-30T18:31:59.753Z,21.10
2022-08-30T18:34:28.164Z,21.00
2022-08-30T18:36:55.561Z,21.00
2022-08-30T18:39:23.091Z,20.90
2022-08-30T18:41:54.262Z,20.90
2022-08-30T18:44:29.356Z,20.80
2022-08-30T18:47:00.214Z,20.80
2022-08-30T18:49:32.529Z,20.70
2022-08-30T18:52:01.298Z,20.70
2022-08-30T18:54:31.250Z,20.70
2022-08-30T18:56:59.449Z,20.70
2022-08-30T18:59:35.563Z,20.60
2022-08-30T19:02:09.416Z,20.60
2022-08-30T19:04:38.028Z,20.60
2022-08-30T19:07:07.973Z,20.60
2022-08-30T19:09:36.659Z,20.60
2022-08-30T19:12:09.434Z,20.50
2022-08-30T19:14:39.039Z,20.50
2022-08-30T19:17:07.604Z,20.50
2022-08-30T19:19:48.772Z,20.50
2022-08-30T19:22:19.062Z,20.50
2022-08-30T19:24:46.891Z,20.50
2022-08-30T19:27:14.059Z,20.60
2022-08-30T19:29:41.376Z,20.60
2022-08-30T19:32:11.890Z,20.60
2022-08-30T19:34:40.412Z,20.70
2022-08-30T19:37:07.786Z,20.70
2022-08-30T19:39:39.030Z,20.60
2022-08-30T19:42:06.374Z,20.60
2022-08-30T19:44:34.955Z,20.60
2022-08-30T19:47:05.174Z,20.60
2022-08-30T19:49:34.050Z,20.60
2022-08-30T19:52:01.825Z,20.50
2022-08-30T19:54:29.263Z,20.50
2022-08-30T19:56:56.306Z,20.50
2022-08-30T19:59:24.179Z,20.50
2022-08-30T20:01:51.400Z,20.50
2022-08-30T20:04:18.611Z,20.50
2022-08-30T20:06:46.287Z,20.60
2022-08-30T20:09:14.458Z,20.60
2022-08-30T20:11:42.858Z,20.70
2022-08-30T20:14:13.563Z,20.80
2022-08-30T20:16:41.380Z,20.70
2022-08-30T20:19:11.891Z,20.70
2022-08-30T20:21:39.247Z,20.60
2022-08-30T20:24:09.477Z,20.60
2022-08-30T20:26:38.778Z,20.60
2022-08-30T20:29:09.032Z,20.50
2022-08-30T20:31:36.468Z,20.50
2022-08-30T20:34:04.814Z,20.60
2022-08-30T20:36:33.800Z,20.50
2022-08-30T20:39:02.052Z,20.40
2022-08-30T20:41:30.824Z,20.30
2022-08-30T20:43:58.407Z,20.30
2022-08-30T20:46:26.066Z,20.40
2022-08-30T20:48:55.073Z,20.50
2022-08-30T20:51:27.607Z,20.50
2022-08-30T20:53:55.755Z,20.50
2022-08-30T20:56:25.651Z,20.50
2022-08-30T20:58:52.824Z,20.30
2022-08-30T21:01:20.146Z,20.40
2022-08-30T21:03:48.084Z,20.40
2022-08-30T21:06:19.183Z,20.50
2022-08-30T21:08:46.290Z,20.60
2022-08-30T21:11:16.302Z,20.60
2022-08-30T21:13:43.631Z,20.60
2022-08-30T21:16:12.408Z,20.70
2022-08-30T21:18:40.934Z,20.70
2022-08-30T21:21:21.580Z,20.70
2022-08-30T21:24:07.856Z,20.70
2022-08-30T21:26:35.543Z,20.80
2022-08-30T21:29:03.071Z,20.80
2022-08-30T21:31:30.870Z,20.80
2022-08-30T21:33:58.145Z,20.70
2022-08-30T21:36:45.572Z,20.70
2022-08-30T21:39:23.321Z,20.70
2022-08-30T21:41:54.596Z,20.70
2022-08-30T21:44:25.608Z,20.70
2022-08-30T21:46:54.079Z,20.70
2022-08-30T21:49:23.683Z,20.70
2022-08-30T21:51:52.767Z,20.70
2022-08-30T21:54:21.291Z,20.70
2022-08-30T21:56:50.659Z,20.60
2022-08-30T21:59:19.616Z,20.50
2022-08-30T22:01:48.518Z,20.60
2022-08-30T22:04:16.354Z,20.50
2022-08-30T22:06:50.275Z,20.60
2022-08-30T22:09:24.892Z,20.50
2022-08-30T22:11:52.542Z,20.40
2022-08-30T22:14:21.369Z,20.50
2022-08-30T22:16:49.101Z,20.60
2022-08-30T22:19:23.057Z,20.70
2022-08-30T22:21:51.911Z,20.80
2022-08-30T22:24:21.875Z,20.80
2022-08-30T22:26:52.173Z,20.90
2022-08-30T22:29:19.264Z,20.80
2022-08-30T22:31:46.633Z,20.80
2022-08-30T22:34:16.601Z,20.70
2022-08-30T22:36:44.224Z,20.60
2022-08-30T22:39:11.446Z,20.70
2022-08-30T22:41:42.956Z,20.70
2022-08-30T22:44:11.404Z,20.70
2022-08-30T22:46:39.488Z,20.60
2022-08-30T22:49:09.715Z,20.80
2022-08-30T22:51:40.990Z,20.90
2022-08-30T22:54:09.463Z,20.90
2022-08-30T22:56:39.424Z,20.90
2022-08-30T22:59:07.522Z,20.90
2022-08-30T23:01:43.406Z,20.90
2022-08-30T23:04:12.264Z,21.00
2022-08-30T23:06:40.017Z,21.10
2022-08-30T23:09:07.860Z,21.10
2022-08-30T23:11:37.387Z,21.20
2022-08-30T23:14:06.239Z,21.10
2022-08-30T23:16:34.478Z,21.10
2022-08-30T23:19:01.636Z,21.20
2022-08-30T23:21:30.602Z,21.20
2022-08-30T23:24:17.294Z,21.20
2022-08-30T23:27:04.443Z,21.20
2022-08-30T23:29:51.466Z,21.20
2022-08-30T23:32:37.527Z,21.20
2022-08-30T23:35:29.633Z,21.10
2022-08-30T23:38:21.092Z,21.10
2022-08-30T23:41:06.846Z,21.00
2022-08-30T23:43:52.496Z,21.10
2022-08-30T23:46:39.825Z,21.10
2022-08-30T23:49:25.526Z,21.10
2022-08-30T23:52:11.181Z,21.10
2022-08-30T23:54:57.357Z,21.10
2022-08-30T23:57:45.470Z,21.10
